createdAt,value
2019-03-06T00:00:48.605Z,5.50
2019-03-06T00:03:17.722Z,5.50
2019-03-06T00:05:46.846Z,5.40
2019-03-06T00:08:15.984Z,5.40
2019-03-06T00:10:45.129Z,5.40
2019-03-06T00:13:14.338Z,5.40
2019-03-06T00:15:43.731Z,5.40
2019-03-06T00:18:12.864Z,5.50
2019-03-06T00:20:42.048Z,5.50
2019-03-06T00:23:11.157Z,5.60
2019-03-06T00:25:40.311Z,5.50
2019-03-06T00:28:09.439Z,5.40
2019-03-06T00:30:38.571Z,5.40
2019-03-06T00:33:07.799Z,5.30
2019-03-06T00:35:40.642Z,5.20
2019-03-06T00:38:09.856Z,5.10
2019-03-06T00:40:50.406Z,5.10
2019-03-06T00:43:19.515Z,5.00
2019-03-06T00:45:48.737Z,5.00
2019-03-06T00:48:17.906Z,5.00
2019-03-06T00:50:47.088Z,5.00
2019-03-06T00:53:16.223Z,5.10
2019-03-06T00:55:45.339Z,5.10
2019-03-06T00:58:14.484Z,5.20
2019-03-06T01:00:43.602Z,5.10
2019-03-06T01:03:13.237Z,5.00
2019-03-06T01:05:42.336Z,5.00
2019-03-06T01:08:11.486Z,4.90
2019-03-06T01:10:40.648Z,4.80
2019-03-06T01:13:09.774Z,4.80
2019-03-06T01:15:38.905Z,4.80
2019-03-06T01:18:08.108Z,4.70
2019-03-06T01:20:37.217Z,4.60
2019-03-06T01:23:06.340Z,4.60
2019-03-06T01:25:35.472Z,4.60
2019-03-06T01:28:04.585Z,4.70
2019-03-06T01:30:33.716Z,4.70
2019-03-06T01:33:24.641Z,4.60
2019-03-06T01:36:15.862Z,4.60
2019-03-06T01:39:09.814Z,4.50
2019-03-06T01:41:52.270Z,4.40
2019-03-06T01:44:25.787Z,4.40
2019-03-06T01:46:55.406Z,4.40
2019-03-06T01:49:25.065Z,4.30
2019-03-06T01:51:54.218Z,4.30
2019-03-06T01:54:23.341Z,4.30
2019-03-06T01:56:52.567Z,4.20
2019-03-06T01:59:21.685Z,4.20
2019-03-06T02:01:50.895Z,4.10
2019-03-06T02:04:20.030Z,4.10
2019-03-06T02:06:49.165Z,4.00
2019-03-06T02:09:20.385Z,4.00
2019-03-06T02:11:49.493Z,4.10
2019-03-06T02:14:18.623Z,4.20
2019-03-06T02:16:47.740Z,4.20
2019-03-06T02:19:16.906Z,4.20
2019-03-06T02:21:46.037Z,4.10
2019-03-06T02:24:15.199Z,4.00
2019-03-06T02:26:44.347Z,3.90
2019-03-06T02:29:13.478Z,3.90
2019-03-06T02:31:42.660Z,3.90
2019-03-06T02:34:11.858Z,3.90
2019-03-06T02:36:40.968Z,3.90
2019-03-06T02:39:10.709Z,3.80
2019-03-06T02:41:39.829Z,3.80
2019-03-06T02:44:08.947Z,3.70
2019-03-06T02:46:38.103Z,3.70
2019-03-06T02:49:07.346Z,3.60
2019-03-06T02:51:36.528Z,3.60
2019-03-06T02:54:05.645Z,3.60
2019-03-06T02:56:34.778Z,3.70
2019-03-06T02:59:19.918Z,3.70
2019-03-06T03:02:13.914Z,3.80
2019-03-06T03:04:55.397Z,3.70
2019-03-06T03:07:25.020Z,3.70
2019-03-06T03:09:54.162Z,3.70
2019-03-06T03:12:23.276Z,3.60
2019-03-06T03:14:52.481Z,3.60
2019-03-06T03:17:21.586Z,3.60
2019-03-06T03:19:51.205Z,3.50
2019-03-06T03:22:20.318Z,3.50
2019-03-06T03:24:49.469Z,3.50
2019-03-06T03:27:18.589Z,3.40
2019-03-06T03:29:47.719Z,3.30
2019-03-06T03:32:16.995Z,3.30
2019-03-06T03:34:46.142Z,3.30
2019-03-06T03:37:15.355Z,3.20
2019-03-06T03:39:44.502Z,3.40
2019-03-06T03:42:13.621Z,3.40
2019-03-06T03:44:42.748Z,3.50
2019-03-06T03:47:11.940Z,3.60
2019-03-06T03:49:41.030Z,3.50
2019-03-06T03:52:10.108Z,3.40
2019-03-06T03:54:39.217Z,3.40
2019-03-06T03:57:08.343Z,3.30
2019-03-06T03:59:37.459Z,3.20
2019-03-06T04:02:06.595Z,3.20
2019-03-06T04:04:35.696Z,3.10
2019-03-06T04:07:04.932Z,3.10
2019-03-06T04:09:34.120Z,3.20
2019-03-06T04:12:03.283Z,3.10
2019-03-06T04:14:32.410Z,3.10
2019-03-06T04:17:01.551Z,3.00
2019-03-06T04:19:30.636Z,3.00
2019-03-06T04:21:59.773Z,3.00
2019-03-06T04:24:29.280Z,3.00
2019-03-06T04:26:58.372Z,2.90
2019-03-06T04:29:27.593Z,2.90
2019-03-06T04:31:56.705Z,2.80
2019-03-06T04:34:25.941Z,2.80
2019-03-06T04:36:55.500Z,2.80
2019-03-06T04:39:24.632Z,2.90
2019-03-06T04:41:53.755Z,2.90
2019-03-06T04:44:22.890Z,2.90
2019-03-06T04:46:52.008Z,3.00
2019-03-06T04:49:24.220Z,2.90
2019-03-06T04:51:53.332Z,3.00
2019-03-06T04:54:22.474Z,2.90
2019-03-06T04:56:51.645Z,2.90
2019-03-06T04:59:20.833Z,2.90
2019-03-06T05:01:49.943Z,2.90
2019-03-06T05:04:19.014Z,2.80
2019-03-06T05:06:48.256Z,2.80
2019-03-06T05:09:17.374Z,2.80
2019-03-06T05:11:46.616Z,2.70
2019-03-06T05:14:15.728Z,2.70
2019-03-06T05:17:02.405Z,2.70
2019-03-06T05:19:31.497Z,2.80
2019-03-06T05:22:00.633Z,2.80
2019-03-06T05:24:29.745Z,2.80
2019-03-06T05:26:58.892Z,2.80
2019-03-06T05:29:28.021Z,2.80
2019-03-06T05:32:34.481Z,2.80
2019-03-06T05:35:22.282Z,2.70
2019-03-06T05:38:07.022Z,2.70
2019-03-06T05:40:36.108Z,2.70
2019-03-06T05:43:05.240Z,2.90
2019-03-06T05:45:34.354Z,3.00
2019-03-06T05:48:03.854Z,3.30
2019-03-06T05:50:32.946Z,3.30
2019-03-06T05:53:02.076Z,3.50
2019-03-06T05:55:31.213Z,3.80
2019-03-06T05:58:00.330Z,3.90
2019-03-06T06:00:30.232Z,4.00
2019-03-06T06:02:59.348Z,3.90
2019-03-06T06:05:28.546Z,3.80
2019-03-06T06:07:57.683Z,3.60
2019-03-06T06:10:26.863Z,3.60
2019-03-06T06:12:56.003Z,3.50
2019-03-06T06:15:25.198Z,3.60
2019-03-06T06:17:54.391Z,3.60
2019-03-06T06:20:23.565Z,3.70
2019-03-06T06:23:06.941Z,3.70
2019-03-06T06:25:36.149Z,3.70
2019-03-06T06:28:05.287Z,3.80
2019-03-06T06:30:34.677Z,3.90
2019-03-06T06:33:03.827Z,3.90
2019-03-06T06:35:32.905Z,4.00
2019-03-06T06:38:02.033Z,4.40
2019-03-06T06:40:31.200Z,4.40
2019-03-06T06:43:00.413Z,4.50
2019-03-06T06:45:29.516Z,4.70
2019-03-06T06:48:12.972Z,4.90
2019-03-06T06:50:45.494Z,5.00
2019-03-06T06:53:52.864Z,5.10
2019-03-06T06:56:59.870Z,5.10
2019-03-06T06:59:56.353Z,4.90
2019-03-06T07:03:40.909Z,4.80
2019-03-06T07:06:27.709Z,4.80
2019-03-06T07:09:21.932Z,4.90
2019-03-06T07:12:10.114Z,5.00
2019-03-06T07:15:16.550Z,5.00
2019-03-06T07:17:58.061Z,5.10
2019-03-06T07:20:34.322Z,5.20
2019-03-06T07:23:11.519Z,5.20
2019-03-06T07:25:48.884Z,5.40
2019-03-06T07:28:26.423Z,5.50
2019-03-06T07:31:11.995Z,5.70
2019-03-06T07:34:00.105Z,5.80
2019-03-06T07:36:47.540Z,6.00
2019-03-06T07:39:20.853Z,6.10
2019-03-06T07:42:09.119Z,6.20
2019-03-06T07:45:04.594Z,6.30
2019-03-06T07:47:52.039Z,6.30
2019-03-06T07:50:38.306Z,6.30
2019-03-06T07:54:05.138Z,6.40
2019-03-06T07:56:37.564Z,6.40
2019-03-06T07:59:06.693Z,6.50
2019-03-06T08:01:57.376Z,6.50
2019-03-06T08:04:26.502Z,6.60
2019-03-06T08:07:03.326Z,6.70
2019-03-06T08:09:32.443Z,6.80
2019-03-06T08:12:14.882Z,7.00
2019-03-06T08:15:03.049Z,7.00
2019-03-06T08:17:38.909Z,7.00
2019-03-06T08:20:29.508Z,7.10
2019-03-06T08:23:07.681Z,7.10
2019-03-06T08:25:46.307Z,7.20
2019-03-06T08:28:15.581Z,7.30
2019-03-06T08:30:51.467Z,7.40
2019-03-06T08:33:20.608Z,7.40
2019-03-06T08:35:49.700Z,7.50
2019-03-06T08:38:18.792Z,7.60
2019-03-06T08:40:48.098Z,7.70
2019-03-06T08:43:17.190Z,7.80
2019-03-06T08:46:08.234Z,7.90
2019-03-06T08:48:47.076Z,8.00
2019-03-06T08:51:25.958Z,8.10
2019-03-06T08:54:05.283Z,8.30
2019-03-06T08:56:48.436Z,8.40
2019-03-06T08:59:32.168Z,8.40
2019-03-06T09:02:20.348Z,8.50
2019-03-06T09:05:00.441Z,8.50
2019-03-06T09:07:58.767Z,8.60
2019-03-06T09:10:47.337Z,8.80
2019-03-06T09:13:41.691Z,8.90
2019-03-06T09:16:37.875Z,9.10
2019-03-06T09:19:26.043Z,9.30
2019-03-06T09:22:03.918Z,9.30
2019-03-06T09:24:52.072Z,9.50
2019-03-06T09:27:27.798Z,9.60
2019-03-06T09:30:19.787Z,9.70
2019-03-06T09:33:06.867Z,9.90
2019-03-06T09:35:45.304Z,10.00
2019-03-06T09:38:33.479Z,10.20
2019-03-06T09:41:30.668Z,10.30
2019-03-06T09:44:18.823Z,10.30
2019-03-06T09:47:12.977Z,10.50
2019-03-06T09:50:07.112Z,10.60
2019-03-06T09:52:54.614Z,10.80
2019-03-06T09:55:43.965Z,11.00
2019-03-06T09:58:41.382Z,11.20
2019-03-06T10:01:32.782Z,11.30
2019-03-06T10:04:19.923Z,11.40
2019-03-06T10:07:08.110Z,11.60
2019-03-06T10:09:59.108Z,11.70
2019-03-06T10:13:03.392Z,11.70
2019-03-06T10:15:49.190Z,11.80
2019-03-06T10:18:22.429Z,12.10
2019-03-06T10:20:51.552Z,12.20
2019-03-06T10:23:20.756Z,12.40
2019-03-06T10:25:49.977Z,12.50
2019-03-06T10:28:27.543Z,12.30
2019-03-06T10:30:49.929Z,12.50
2019-03-06T10:33:19.019Z,12.50
2019-03-06T10:35:48.356Z,12.60
2019-03-06T10:38:17.550Z,12.60
2019-03-06T10:40:46.751Z,12.60
2019-03-06T10:43:15.998Z,12.60
2019-03-06T10:45:45.180Z,12.60
2019-03-06T10:48:14.317Z,12.60
2019-03-06T10:50:43.513Z,12.60
2019-03-06T10:53:12.668Z,12.70
2019-03-06T10:55:41.863Z,12.80
2019-03-06T10:58:11.165Z,12.90
2019-03-06T11:00:49.157Z,13.00
2019-03-06T11:03:18.418Z,13.00
2019-03-06T11:05:49.089Z,12.90
2019-03-06T11:08:19.407Z,12.90
2019-03-06T11:10:48.715Z,12.90
2019-03-06T11:13:18.607Z,12.80
2019-03-06T11:15:55.333Z,12.80
2019-03-06T11:18:19.185Z,12.80
2019-03-06T11:20:48.412Z,12.80
2019-03-06T11:23:17.521Z,12.80
2019-03-06T11:25:46.643Z,12.70
2019-03-06T11:28:15.915Z,12.90
2019-03-06T11:30:49.048Z,12.90
2019-03-06T11:33:19.868Z,13.10
2019-03-06T11:35:49.887Z,13.10
2019-03-06T11:38:19.579Z,13.20
2019-03-06T11:40:49.128Z,13.50
2019-03-06T11:43:18.306Z,13.60
2019-03-06T11:45:47.924Z,14.00
2019-03-06T11:48:17.438Z,14.20
2019-03-06T11:50:47.947Z,14.20
2019-03-06T11:53:17.147Z,14.30
2019-03-06T11:55:46.364Z,14.50
2019-03-06T11:58:18.118Z,14.70
2019-03-06T12:00:47.438Z,14.70
2019-03-06T12:03:18.547Z,14.90
2019-03-06T12:05:48.296Z,14.90
2019-03-06T12:08:18.320Z,14.60
2019-03-06T12:10:48.031Z,14.60
2019-03-06T12:13:17.625Z,14.70
2019-03-06T12:15:48.728Z,14.90
2019-03-06T12:18:19.645Z,15.20
2019-03-06T12:20:48.755Z,15.40
2019-03-06T12:23:17.980Z,15.60
2019-03-06T12:25:47.202Z,15.40
2019-03-06T12:28:17.314Z,15.70
2019-03-06T12:30:46.582Z,15.70
2019-03-06T12:33:19.620Z,15.60
2019-03-06T12:35:48.850Z,15.50
2019-03-06T12:38:18.189Z,15.50
2019-03-06T12:40:47.469Z,15.40
2019-03-06T12:43:16.831Z,15.50
2019-03-06T12:46:12.281Z,15.60
2019-03-06T12:48:41.545Z,15.70
2019-03-06T12:51:10.778Z,16.00
2019-03-06T12:53:39.994Z,16.10
2019-03-06T12:56:09.142Z,16.10
2019-03-06T12:58:38.311Z,16.00
2019-03-06T13:01:07.631Z,16.10
2019-03-06T13:03:36.767Z,16.30
2019-03-06T13:06:05.971Z,16.40
2019-03-06T13:08:35.470Z,16.40
2019-03-06T13:11:04.721Z,16.40
2019-03-06T13:13:35.725Z,16.50
2019-03-06T13:16:05.074Z,16.00
2019-03-06T13:18:34.402Z,15.70
2019-03-06T13:21:04.604Z,16.00
2019-03-06T13:23:34.096Z,15.60
2019-03-06T13:26:10.042Z,15.80
2019-03-06T13:28:34.634Z,16.00
2019-03-06T13:31:04.064Z,16.20
2019-03-06T13:34:07.350Z,16.60
2019-03-06T13:36:36.585Z,16.90
2019-03-06T13:39:08.411Z,16.80
2019-03-06T13:41:37.867Z,16.20
2019-03-06T13:44:07.190Z,15.70
2019-03-06T13:46:36.509Z,15.50
2019-03-06T13:49:05.977Z,15.40
2019-03-06T13:51:35.096Z,15.30
2019-03-06T13:54:04.420Z,15.10
2019-03-06T13:56:33.558Z,15.10
2019-03-06T13:59:02.857Z,15.10
2019-03-06T14:01:32.029Z,15.00
2019-03-06T14:04:01.244Z,14.90
2019-03-06T14:06:30.551Z,14.80
2019-03-06T14:09:01.417Z,14.80
2019-03-06T14:11:30.553Z,14.40
2019-03-06T14:13:59.939Z,14.10
2019-03-06T14:16:29.851Z,13.80
2019-03-06T14:18:58.990Z,13.70
2019-03-06T14:21:28.165Z,13.50
2019-03-06T14:23:57.317Z,13.50
2019-03-06T14:26:26.557Z,13.40
2019-03-06T14:28:56.157Z,13.40
2019-03-06T14:31:25.469Z,13.30
2019-03-06T14:33:54.612Z,13.30
2019-03-06T14:36:23.901Z,13.20
2019-03-06T14:38:53.114Z,13.20
2019-03-06T14:41:22.402Z,13.10
2019-03-06T14:43:51.908Z,13.20
2019-03-06T14:46:21.093Z,13.20
2019-03-06T14:48:50.301Z,13.20
2019-03-06T14:51:19.485Z,13.20
2019-03-06T14:53:48.722Z,13.10
2019-03-06T14:56:18.216Z,13.10
2019-03-06T14:58:47.754Z,13.00
2019-03-06T15:01:16.922Z,13.00
2019-03-06T15:03:46.044Z,12.90
2019-03-06T15:06:15.212Z,12.80
2019-03-06T15:08:44.383Z,12.70
2019-03-06T15:11:13.521Z,12.60
2019-03-06T15:13:42.649Z,12.50
2019-03-06T15:16:11.783Z,12.40
2019-03-06T15:18:40.920Z,12.40
2019-03-06T15:21:10.142Z,12.30
2019-03-06T15:23:39.317Z,12.20
2019-03-06T15:26:10.000Z,12.20
2019-03-06T15:28:39.640Z,12.10
2019-03-06T15:31:08.861Z,12.00
2019-03-06T15:33:38.065Z,12.00
2019-03-06T15:36:07.330Z,12.00
2019-03-06T15:38:36.829Z,12.00
2019-03-06T15:41:06.139Z,12.00
2019-03-06T15:43:35.311Z,11.90
2019-03-06T15:46:04.993Z,11.90
2019-03-06T15:48:34.157Z,11.80
2019-03-06T15:51:03.791Z,11.80
2019-03-06T15:53:33.028Z,11.80
2019-03-06T15:56:02.199Z,11.70
2019-03-06T15:58:31.497Z,11.60
2019-03-06T16:01:00.722Z,11.50
2019-03-06T16:03:30.265Z,11.40
2019-03-06T16:05:59.550Z,11.40
2019-03-06T16:08:29.134Z,11.40
2019-03-06T16:10:58.381Z,11.30
2019-03-06T16:13:27.600Z,11.30
2019-03-06T16:15:57.197Z,11.20
2019-03-06T16:18:26.523Z,11.20
2019-03-06T16:20:55.693Z,11.20
2019-03-06T16:23:25.275Z,11.20
2019-03-06T16:25:54.429Z,11.20
2019-03-06T16:28:23.575Z,11.20
2019-03-06T16:30:52.710Z,11.20
2019-03-06T16:33:21.880Z,11.10
2019-03-06T16:35:51.035Z,11.10
2019-03-06T16:38:20.336Z,11.10
2019-03-06T16:40:49.451Z,11.10
2019-03-06T16:43:18.616Z,11.10
2019-03-06T16:45:47.740Z,11.10
2019-03-06T16:48:17.163Z,11.10
2019-03-06T16:50:46.889Z,11.00
2019-03-06T16:53:17.187Z,11.00
2019-03-06T16:55:46.332Z,11.00
2019-03-06T16:58:15.539Z,10.90
2019-03-06T17:00:44.785Z,10.90
2019-03-06T17:03:14.022Z,10.80
2019-03-06T17:05:43.361Z,10.80
2019-03-06T17:08:12.536Z,10.80
2019-03-06T17:10:41.822Z,10.70
2019-03-06T17:13:11.041Z,10.60
2019-03-06T17:15:42.001Z,10.60
2019-03-06T17:18:11.141Z,10.60
2019-03-06T17:20:40.464Z,10.50
2019-03-06T17:23:10.141Z,10.50
2019-03-06T17:25:42.752Z,10.50
2019-03-06T17:28:12.311Z,10.50
2019-03-06T17:30:42.225Z,10.40
2019-03-06T17:33:12.449Z,10.40
2019-03-06T17:35:41.744Z,10.30
2019-03-06T17:38:11.781Z,10.30
2019-03-06T17:40:43.774Z,10.20
2019-03-06T17:43:18.697Z,10.20
2019-03-06T17:45:56.351Z,10.20
2019-03-06T17:48:24.735Z,10.10
2019-03-06T17:50:53.972Z,10.10
2019-03-06T17:53:23.536Z,10.10
2019-03-06T17:55:52.815Z,10.10
2019-03-06T18:01:17.850Z,10.10
2019-03-06T18:04:06.228Z,10.00
2019-03-06T18:06:35.395Z,10.00
2019-03-06T18:09:06.757Z,10.00
2019-03-06T18:11:35.982Z,10.00
2019-03-06T18:14:05.249Z,10.00
2019-03-06T18:16:37.097Z,10.00
2019-03-06T18:19:06.005Z,10.00
2019-03-06T18:21:35.252Z,10.00
2019-03-06T18:24:04.403Z,10.00
2019-03-06T18:26:33.556Z,10.00
2019-03-06T18:29:03.020Z,10.00
2019-03-06T18:31:32.651Z,10.00
2019-03-06T18:34:07.941Z,10.00
2019-03-06T18:36:47.520Z,10.00
2019-03-06T18:39:22.532Z,10.10
2019-03-06T18:41:52.302Z,10.10
2019-03-06T18:44:29.026Z,10.10
2019-03-06T18:47:02.171Z,10.10
2019-03-06T18:49:31.481Z,10.10
2019-03-06T18:52:00.629Z,10.10
2019-03-06T18:54:30.175Z,10.10
2019-03-06T18:56:59.473Z,10.10
2019-03-06T18:59:28.744Z,10.10
2019-03-06T19:01:58.221Z,10.00
2019-03-06T19:04:27.715Z,10.00
2019-03-06T19:06:57.043Z,9.90
2019-03-06T19:09:26.711Z,9.80
2019-03-06T19:11:56.026Z,9.80
2019-03-06T19:14:25.201Z,9.70
2019-03-06T19:16:54.403Z,9.70
2019-03-06T19:19:23.778Z,9.60
2019-03-06T19:21:53.154Z,9.60
2019-03-06T19:24:22.693Z,9.50
2019-03-06T19:26:51.944Z,9.50
2019-03-06T19:29:21.171Z,9.50
2019-03-06T19:31:50.385Z,9.40
2019-03-06T19:34:19.551Z,9.40
2019-03-06T19:36:48.775Z,9.40
2019-03-06T19:39:18.506Z,9.40
2019-03-06T19:41:47.674Z,9.40
2019-03-06T19:44:16.897Z,9.40
2019-03-06T19:46:48.123Z,9.40
2019-03-06T19:49:17.458Z,9.40
2019-03-06T19:51:51.509Z,9.40
2019-03-06T19:54:17.883Z,9.40
2019-03-06T19:56:48.309Z,9.50
2019-03-06T19:59:17.663Z,9.50
2019-03-06T20:01:46.994Z,9.50
2019-03-06T20:04:16.217Z,9.50
2019-03-06T20:06:49.608Z,9.50
2019-03-06T20:09:24.984Z,9.50
2019-03-06T20:11:54.532Z,9.50
2019-03-06T20:14:23.771Z,9.70
2019-03-06T20:16:53.225Z,9.70
2019-03-06T20:19:22.443Z,9.70
2019-03-06T20:21:51.951Z,9.60
2019-03-06T20:24:21.185Z,9.60
2019-03-06T20:26:50.708Z,9.60
2019-03-06T20:29:20.116Z,9.60
2019-03-06T20:31:49.623Z,9.50
2019-03-06T20:34:19.084Z,9.50
2019-03-06T20:36:48.822Z,9.40
2019-03-06T20:39:18.151Z,9.40
2019-03-06T20:41:47.522Z,9.40
2019-03-06T20:44:17.879Z,9.40
2019-03-06T20:46:47.184Z,9.30
2019-03-06T20:49:16.408Z,9.30
2019-03-06T20:51:46.037Z,9.30
2019-03-06T20:54:15.282Z,9.30
2019-03-06T20:56:44.531Z,9.30
2019-03-06T20:59:13.834Z,9.30
2019-03-06T21:01:43.133Z,9.30
2019-03-06T21:04:12.430Z,9.20
2019-03-06T21:06:41.769Z,9.30
2019-03-06T21:09:11.043Z,9.30
2019-03-06T21:11:40.277Z,9.30
2019-03-06T21:14:09.627Z,9.40
2019-03-06T21:16:38.920Z,9.40
2019-03-06T21:19:08.147Z,9.50
2019-03-06T21:21:37.282Z,9.50
2019-03-06T21:24:06.434Z,9.50
2019-03-06T21:26:35.615Z,9.50
2019-03-06T21:29:05.009Z,9.60
2019-03-06T21:31:34.193Z,9.70
2019-03-06T21:34:03.346Z,9.70
2019-03-06T21:36:32.535Z,9.90
2019-03-06T21:39:01.787Z,10.00
2019-03-06T21:41:31.004Z,10.10
2019-03-06T21:44:00.630Z,10.20
2019-03-06T21:46:30.046Z,10.30
2019-03-06T21:48:59.323Z,10.30
2019-03-06T21:51:28.568Z,10.30
2019-03-06T21:53:57.759Z,10.40
2019-03-06T21:56:26.925Z,10.40
2019-03-06T21:58:56.419Z,10.30
2019-03-06T22:01:25.681Z,10.20
2019-03-06T22:03:54.926Z,10.20
2019-03-06T22:06:24.139Z,10.10
2019-03-06T22:08:53.407Z,10.10
2019-03-06T22:11:22.611Z,10.10
2019-03-06T22:13:52.258Z,10.10
2019-03-06T22:16:21.521Z,10.10
2019-03-06T22:18:50.732Z,10.00
2019-03-06T22:21:19.948Z,10.00
2019-03-06T22:23:49.072Z,9.90
2019-03-06T22:26:18.231Z,9.90
2019-03-06T22:28:47.684Z,9.80
2019-03-06T22:31:16.928Z,9.80
2019-03-06T22:33:46.144Z,9.70
2019-03-06T22:36:15.368Z,9.60
2019-03-06T22:38:44.490Z,9.60
2019-03-06T22:41:13.644Z,9.50
2019-03-06T22:43:43.245Z,9.50
2019-03-06T22:46:12.396Z,9.50
2019-03-06T22:48:41.516Z,9.50
2019-03-06T22:51:10.703Z,9.50
2019-03-06T22:53:39.813Z,9.50
2019-03-06T22:56:08.930Z,9.50
2019-03-06T22:58:38.005Z,9.50
2019-03-06T23:01:21.256Z,9.50
2019-03-06T23:03:50.616Z,9.50
2019-03-06T23:06:19.868Z,9.70
2019-03-06T23:08:51.476Z,9.80
2019-03-06T23:11:20.406Z,9.80
2019-03-06T23:13:49.680Z,9.90
2019-03-06T23:16:18.818Z,9.90
2019-03-06T23:18:48.018Z,9.90
2019-03-06T23:21:17.178Z,9.80
2019-03-06T23:23:46.300Z,9.70
2019-03-06T23:26:15.424Z,9.60
2019-03-06T23:28:44.536Z,9.50
2019-03-06T23:31:13.674Z,9.50
2019-03-06T23:33:42.799Z,9.40
2019-03-06T23:36:11.995Z,9.40
2019-03-06T23:38:41.128Z,9.30
2019-03-06T23:41:10.299Z,9.30
2019-03-06T23:43:39.575Z,9.30
2019-03-06T23:46:08.786Z,9.30
2019-03-06T23:48:37.963Z,9.20
2019-03-06T23:51:14.023Z,9.20
2019-03-06T23:53:48.778Z,9.20
2019-03-06T23:56:17.996Z,9.20
2019-03-06T23:58:47.172Z,9.20
